VOI2635 MMMX-MGGT
Flight info
| Callsign | VOI2635 |
|---|---|
| Flight time | 1h 35m |
| Altitude | 37000 |
| Route | UKUN3A UKUNO UT108 VER UA552 AUR |
| Aircraft | A320/M-FAA/L |
Departure
| Time | 2026-05-05 19:47 |
|---|---|
| Airport | Mexico City Benito Juárez International Airport (MMMX) |
Arrival
| Time | 2026-05-05 21:23 |
|---|---|
| Airport | La Aurora International Airport (MGGT) |
| Time | Latitude | Longitude | Altitude | Speed | Heading |
|---|---|---|---|---|---|
| 2026-05-05 19:23 | 19.43299 | -99.08521 | 7301 ft | 0 kts | 326° |
| 2026-05-05 19:39 | 19.43295 | -99.08518 | 7301 ft | 4 kts | 326° |
| 2026-05-05 19:39 | 19.43272 | -99.08502 | 7301 ft | 4 kts | 326° |
| 2026-05-05 19:39 | 19.43251 | -99.08487 | 7301 ft | 3 kts | 326° |
| 2026-05-05 19:39 | 19.43231 | -99.08469 | 7301 ft | 4 kts | 301° |
| 2026-05-05 19:40 | 19.43224 | -99.08444 | 7301 ft | 4 kts | 256° |
| 2026-05-05 19:40 | 19.43236 | -99.08419 | 7301 ft | 4 kts | 230° |
| 2026-05-05 19:40 | 19.43254 | -99.08398 | 7302 ft | 4 kts | 233° |
| 2026-05-05 19:40 | 19.43258 | -99.08391 | 7302 ft | 0 kts | 239° |
| 2026-05-05 19:43 | 19.43258 | -99.08392 | 7302 ft | 0 kts | 239° |
| 2026-05-05 19:43 | 19.43247 | -99.08411 | 7301 ft | 6 kts | 239° |
| 2026-05-05 19:43 | 19.43222 | -99.08456 | 7301 ft | 8 kts | 239° |
| 2026-05-05 19:44 | 19.43192 | -99.08510 | 7301 ft | 9 kts | 240° |
| 2026-05-05 19:44 | 19.43158 | -99.08572 | 7301 ft | 10 kts | 239° |
| 2026-05-05 19:44 | 19.43119 | -99.08642 | 7301 ft | 12 kts | 239° |
| 2026-05-05 19:44 | 19.43071 | -99.08719 | 7301 ft | 13 kts | 216° |
| 2026-05-05 19:45 | 19.42977 | -99.08723 | 7300 ft | 14 kts | 178° |
| 2026-05-05 19:45 | 19.42887 | -99.08682 | 7301 ft | 15 kts | 150° |
| 2026-05-05 19:45 | 19.42805 | -99.08632 | 7301 ft | 7 kts | 152° |
| 2026-05-05 19:45 | 19.42763 | -99.08608 | 7302 ft | 7 kts | 152° |
| 2026-05-05 19:46 | 19.42723 | -99.08585 | 7303 ft | 6 kts | 149° |
| 2026-05-05 19:46 | 19.42724 | -99.08543 | 7303 ft | 8 kts | 64° |
| 2026-05-05 19:46 | 19.42730 | -99.08532 | 7303 ft | 0 kts | 59° |
| 2026-05-05 19:46 | 19.42757 | -99.08484 | 7302 ft | 30 kts | 58° |
| 2026-05-05 19:47 | 19.42991 | -99.08071 | 7303 ft | 98 kts | 58° |
| 2026-05-05 19:47 | 19.43435 | -99.07276 | 7302 ft | 150 kts | 59° |
| 2026-05-05 19:47 | 19.44033 | -99.06205 | 7361 ft | 186 kts | 60° |
| 2026-05-05 19:47 | 19.44651 | -99.05057 | 8250 ft | 177 kts | 60° |
| 2026-05-05 19:48 | 19.45252 | -99.03910 | 9273 ft | 180 kts | 62° |
| 2026-05-05 19:48 | 19.45862 | -99.02725 | 9640 ft | 188 kts | 60° |
| 2026-05-05 19:48 | 19.46614 | -99.01486 | 9714 ft | 211 kts | 56° |
| 2026-05-05 19:48 | 19.47488 | -99.00136 | 9808 ft | 230 kts | 56° |
| 2026-05-05 19:49 | 19.48420 | -98.98684 | 9978 ft | 247 kts | 57° |
| 2026-05-05 19:49 | 19.49065 | -98.97662 | 10101 ft | 258 kts | 57° |
| 2026-05-05 19:49 | 19.50407 | -98.95424 | 10500 ft | 276 kts | 59° |
| 2026-05-05 19:49 | 19.51436 | -98.93622 | 10745 ft | 294 kts | 59° |
| 2026-05-05 19:50 | 19.52495 | -98.91734 | 11259 ft | 300 kts | 60° |
| 2026-05-05 19:50 | 19.53420 | -98.89748 | 11834 ft | 303 kts | 73° |
| 2026-05-05 19:50 | 19.54007 | -98.87594 | 12468 ft | 305 kts | 75° |
| 2026-05-05 19:50 | 19.54575 | -98.85418 | 13110 ft | 307 kts | 75° |
| 2026-05-05 19:51 | 19.54949 | -98.83969 | 13531 ft | 309 kts | 75° |
| 2026-05-05 19:51 | 19.55521 | -98.81762 | 14116 ft | 311 kts | 75° |
| 2026-05-05 19:51 | 19.56100 | -98.79539 | 14661 ft | 313 kts | 75° |
| 2026-05-05 19:51 | 19.56876 | -98.76573 | 15422 ft | 316 kts | 75° |
| 2026-05-05 19:52 | 19.57261 | -98.75048 | 15807 ft | 318 kts | 79° |
| 2026-05-05 19:52 | 19.57480 | -98.71944 | 16420 ft | 326 kts | 95° |
| 2026-05-05 19:52 | 19.57262 | -98.70342 | 16500 ft | 338 kts | 102° |
| 2026-05-05 19:52 | 19.56756 | -98.67857 | 16761 ft | 350 kts | 102° |
| 2026-05-05 19:53 | 19.56240 | -98.65311 | 17268 ft | 355 kts | 102° |
| 2026-05-05 19:53 | 19.55721 | -98.62737 | 17849 ft | 358 kts | 102° |
| 2026-05-05 19:53 | 19.55200 | -98.60144 | 18364 ft | 362 kts | 102° |
| 2026-05-05 19:53 | 19.54676 | -98.57526 | 18852 ft | 365 kts | 102° |
| 2026-05-05 19:54 | 19.54151 | -98.54888 | 19369 ft | 367 kts | 102° |
| 2026-05-05 19:54 | 19.53620 | -98.52227 | 19849 ft | 370 kts | 102° |
| 2026-05-05 19:54 | 19.53082 | -98.49542 | 20318 ft | 374 kts | 102° |
| 2026-05-05 19:54 | 19.52538 | -98.46835 | 20837 ft | 377 kts | 102° |
| 2026-05-05 19:55 | 19.51992 | -98.44110 | 21355 ft | 379 kts | 102° |
| 2026-05-05 19:55 | 19.51442 | -98.41368 | 21816 ft | 383 kts | 102° |
| 2026-05-05 19:55 | 19.50883 | -98.38586 | 22270 ft | 387 kts | 102° |
| 2026-05-05 19:55 | 19.50320 | -98.35784 | 22798 ft | 390 kts | 102° |
| 2026-05-05 19:56 | 19.49754 | -98.32969 | 23306 ft | 393 kts | 102° |
| 2026-05-05 19:56 | 19.49180 | -98.30110 | 23637 ft | 399 kts | 102° |
| 2026-05-05 19:56 | 19.48599 | -98.27218 | 24007 ft | 403 kts | 102° |
| 2026-05-05 19:56 | 19.48012 | -98.24303 | 24413 ft | 405 kts | 102° |
| 2026-05-05 19:57 | 19.47419 | -98.21373 | 24794 ft | 408 kts | 102° |
| 2026-05-05 19:57 | 19.46822 | -98.18421 | 25169 ft | 411 kts | 102° |
| 2026-05-05 19:57 | 19.46228 | -98.15488 | 25536 ft | 414 kts | 102° |
| 2026-05-05 19:57 | 19.45616 | -98.12458 | 25932 ft | 416 kts | 103° |
| 2026-05-05 19:58 | 19.45017 | -98.09494 | 26300 ft | 419 kts | 103° |
| 2026-05-05 19:58 | 19.44402 | -98.06465 | 26655 ft | 422 kts | 103° |
| 2026-05-05 19:58 | 19.43784 | -98.03414 | 27031 ft | 424 kts | 103° |
| 2026-05-05 19:58 | 19.43272 | -98.00332 | 27379 ft | 428 kts | 97° |
| 2026-05-05 19:59 | 19.42971 | -97.97180 | 27723 ft | 430 kts | 97° |
| 2026-05-05 19:59 | 19.42669 | -97.94020 | 28094 ft | 432 kts | 97° |
| 2026-05-05 19:59 | 19.42366 | -97.90845 | 28474 ft | 434 kts | 97° |
| 2026-05-05 19:59 | 19.42061 | -97.87651 | 28823 ft | 437 kts | 97° |
| 2026-05-05 20:00 | 19.41750 | -97.84434 | 29165 ft | 440 kts | 97° |
| 2026-05-05 20:00 | 19.41433 | -97.81204 | 29516 ft | 443 kts | 97° |
| 2026-05-05 20:00 | 19.41112 | -97.77946 | 29863 ft | 446 kts | 97° |
| 2026-05-05 20:00 | 19.40793 | -97.74671 | 30165 ft | 448 kts | 97° |
| 2026-05-05 20:01 | 19.40473 | -97.71380 | 30488 ft | 451 kts | 97° |
| 2026-05-05 20:01 | 19.40151 | -97.68068 | 30799 ft | 453 kts | 97° |
| 2026-05-05 20:01 | 19.39829 | -97.64787 | 31107 ft | 455 kts | 97° |
| 2026-05-05 20:01 | 19.39499 | -97.61450 | 31411 ft | 457 kts | 97° |
| 2026-05-05 20:02 | 19.39168 | -97.58089 | 31737 ft | 459 kts | 97° |
| 2026-05-05 20:02 | 19.38836 | -97.54724 | 32093 ft | 459 kts | 98° |
| 2026-05-05 20:02 | 19.38505 | -97.51364 | 32558 ft | 457 kts | 97° |
| 2026-05-05 20:02 | 19.38178 | -97.48022 | 33012 ft | 456 kts | 97° |
| 2026-05-05 20:03 | 19.37850 | -97.44682 | 33470 ft | 455 kts | 97° |
| 2026-05-05 20:03 | 19.37521 | -97.41355 | 33915 ft | 454 kts | 97° |
| 2026-05-05 20:03 | 19.37192 | -97.38033 | 34303 ft | 452 kts | 97° |
| 2026-05-05 20:03 | 19.36864 | -97.34726 | 34696 ft | 451 kts | 97° |
| 2026-05-05 20:04 | 19.36535 | -97.31429 | 35079 ft | 450 kts | 97° |
| 2026-05-05 20:04 | 19.36204 | -97.28141 | 35460 ft | 449 kts | 97° |
| 2026-05-05 20:04 | 19.35877 | -97.24901 | 35810 ft | 448 kts | 97° |
| 2026-05-05 20:04 | 19.35549 | -97.21629 | 36155 ft | 447 kts | 97° |
| 2026-05-05 20:05 | 19.35221 | -97.18354 | 36492 ft | 446 kts | 98° |
| 2026-05-05 20:05 | 19.34894 | -97.15091 | 36810 ft | 446 kts | 98° |
| 2026-05-05 20:05 | 19.34564 | -97.11824 | 36898 ft | 443 kts | 97° |
| 2026-05-05 20:06 | 19.33905 | -97.05383 | 36913 ft | 438 kts | 99° |
| 2026-05-05 20:06 | 19.32601 | -96.99107 | 36883 ft | 436 kts | 105° |
| 2026-05-05 20:07 | 19.31194 | -96.92874 | 36890 ft | 435 kts | 105° |
| 2026-05-05 20:07 | 19.29785 | -96.86640 | 36890 ft | 435 kts | 105° |
| 2026-05-05 20:08 | 19.28384 | -96.80442 | 36862 ft | 436 kts | 104° |
| 2026-05-05 20:08 | 19.26968 | -96.74208 | 36861 ft | 436 kts | 105° |
| 2026-05-05 20:09 | 19.25545 | -96.67961 | 36826 ft | 436 kts | 105° |
| 2026-05-05 20:09 | 19.24124 | -96.61712 | 36826 ft | 437 kts | 105° |
| 2026-05-05 20:10 | 19.22704 | -96.55466 | 36832 ft | 437 kts | 105° |
| 2026-05-05 20:10 | 19.21278 | -96.49219 | 36836 ft | 437 kts | 105° |
| 2026-05-05 20:11 | 19.19850 | -96.42974 | 36847 ft | 437 kts | 105° |
| 2026-05-05 20:11 | 19.18415 | -96.36724 | 36860 ft | 437 kts | 105° |
| 2026-05-05 20:12 | 19.16975 | -96.30473 | 36871 ft | 437 kts | 105° |
| 2026-05-05 20:12 | 19.15546 | -96.24266 | 36872 ft | 437 kts | 105° |
| 2026-05-05 20:13 | 19.13671 | -96.18183 | 36872 ft | 435 kts | 118° |
| 2026-05-05 20:13 | 19.10420 | -96.12804 | 36874 ft | 434 kts | 125° |
| 2026-05-05 20:14 | 19.07027 | -96.07525 | 36872 ft | 434 kts | 125° |
| 2026-05-05 20:14 | 19.03640 | -96.02240 | 36864 ft | 434 kts | 125° |
| 2026-05-05 20:15 | 19.00256 | -95.96956 | 36853 ft | 434 kts | 125° |
| 2026-05-05 20:15 | 18.96866 | -95.91669 | 36843 ft | 435 kts | 125° |
| 2026-05-05 20:16 | 18.93465 | -95.86380 | 36843 ft | 435 kts | 125° |
| 2026-05-05 20:16 | 18.90073 | -95.81101 | 36845 ft | 434 kts | 125° |
| 2026-05-05 20:17 | 18.86677 | -95.75823 | 36836 ft | 434 kts | 125° |
| 2026-05-05 20:17 | 18.83286 | -95.70554 | 36840 ft | 434 kts | 125° |
| 2026-05-05 20:18 | 18.79893 | -95.65289 | 36834 ft | 434 kts | 125° |
| 2026-05-05 20:18 | 18.76499 | -95.60026 | 36839 ft | 434 kts | 125° |
| 2026-05-05 20:19 | 18.73100 | -95.54759 | 36818 ft | 434 kts | 125° |
| 2026-05-05 20:19 | 18.69715 | -95.49524 | 36818 ft | 435 kts | 125° |
| 2026-05-05 20:20 | 18.66306 | -95.44259 | 36821 ft | 435 kts | 125° |
| 2026-05-05 20:20 | 18.62889 | -95.38976 | 36810 ft | 436 kts | 125° |
| 2026-05-05 20:21 | 18.59471 | -95.33695 | 36814 ft | 436 kts | 125° |
| 2026-05-05 20:21 | 18.56047 | -95.28417 | 36836 ft | 436 kts | 125° |
| 2026-05-05 20:22 | 18.52619 | -95.23136 | 36836 ft | 436 kts | 125° |
| 2026-05-05 20:22 | 18.49200 | -95.17855 | 36852 ft | 437 kts | 125° |
| 2026-05-05 20:23 | 18.45793 | -95.12607 | 36855 ft | 437 kts | 125° |
| 2026-05-05 20:23 | 18.42354 | -95.07325 | 36854 ft | 437 kts | 125° |
| 2026-05-05 20:24 | 18.38921 | -95.02052 | 36870 ft | 437 kts | 125° |
| 2026-05-05 20:24 | 18.35485 | -94.96779 | 36857 ft | 437 kts | 125° |
| 2026-05-05 20:25 | 18.32049 | -94.91498 | 36850 ft | 438 kts | 125° |
| 2026-05-05 20:25 | 18.28599 | -94.86210 | 36850 ft | 438 kts | 125° |
| 2026-05-05 20:26 | 18.25156 | -94.80944 | 36852 ft | 439 kts | 125° |
| 2026-05-05 20:26 | 18.21694 | -94.75652 | 36854 ft | 439 kts | 125° |
| 2026-05-05 20:27 | 18.18221 | -94.70351 | 36854 ft | 440 kts | 125° |
| 2026-05-05 20:27 | 18.14751 | -94.65051 | 36879 ft | 440 kts | 125° |
| 2026-05-05 20:28 | 18.11278 | -94.59755 | 36880 ft | 440 kts | 126° |
| 2026-05-05 20:28 | 18.07167 | -94.55019 | 36878 ft | 439 kts | 136° |
| 2026-05-05 20:29 | 18.02790 | -94.50541 | 36878 ft | 439 kts | 136° |
| 2026-05-05 20:29 | 17.98409 | -94.46074 | 36872 ft | 439 kts | 136° |
| 2026-05-05 20:30 | 17.94032 | -94.41596 | 36862 ft | 439 kts | 136° |
| 2026-05-05 20:30 | 17.89655 | -94.37116 | 36857 ft | 439 kts | 136° |
| 2026-05-05 20:31 | 17.85287 | -94.32635 | 36848 ft | 439 kts | 136° |
| 2026-05-05 20:31 | 17.80905 | -94.28161 | 36840 ft | 439 kts | 136° |
| 2026-05-05 20:32 | 17.76544 | -94.23716 | 36842 ft | 439 kts | 136° |
| 2026-05-05 20:32 | 17.72163 | -94.19246 | 36843 ft | 439 kts | 136° |
| 2026-05-05 20:33 | 17.67772 | -94.14787 | 36832 ft | 440 kts | 136° |
| 2026-05-05 20:33 | 17.63381 | -94.10316 | 36832 ft | 440 kts | 136° |
| 2026-05-05 20:34 | 17.58980 | -94.05833 | 36832 ft | 441 kts | 136° |
| 2026-05-05 20:34 | 17.54579 | -94.01356 | 36831 ft | 441 kts | 136° |
| 2026-05-05 20:35 | 17.50174 | -93.96879 | 36834 ft | 441 kts | 136° |
| 2026-05-05 20:35 | 17.45762 | -93.92401 | 36838 ft | 441 kts | 136° |
| 2026-05-05 20:36 | 17.41353 | -93.87927 | 36843 ft | 441 kts | 136° |
| 2026-05-05 20:36 | 17.36972 | -93.83479 | 36842 ft | 441 kts | 136° |
| 2026-05-05 20:37 | 17.32551 | -93.79003 | 36831 ft | 442 kts | 136° |
| 2026-05-05 20:37 | 17.28123 | -93.74529 | 36840 ft | 443 kts | 136° |
| 2026-05-05 20:38 | 17.23698 | -93.70046 | 36842 ft | 443 kts | 136° |
| 2026-05-05 20:38 | 17.19270 | -93.65564 | 36847 ft | 443 kts | 136° |
| 2026-05-05 20:39 | 17.14835 | -93.61087 | 36853 ft | 443 kts | 136° |
| 2026-05-05 20:39 | 17.10397 | -93.56604 | 36851 ft | 443 kts | 136° |
| 2026-05-05 20:40 | 17.05991 | -93.52156 | 36853 ft | 443 kts | 136° |
| 2026-05-05 20:40 | 17.01554 | -93.47691 | 36868 ft | 443 kts | 137° |
| 2026-05-05 20:41 | 16.97113 | -93.43225 | 36863 ft | 443 kts | 136° |
| 2026-05-05 20:41 | 16.92673 | -93.38749 | 36863 ft | 443 kts | 136° |
| 2026-05-05 20:42 | 16.88234 | -93.34277 | 36872 ft | 443 kts | 136° |
| 2026-05-05 20:42 | 16.83796 | -93.29805 | 36862 ft | 444 kts | 137° |
| 2026-05-05 20:43 | 16.79343 | -93.25330 | 36876 ft | 444 kts | 136° |
| 2026-05-05 20:43 | 16.75636 | -93.21617 | 36894 ft | 444 kts | 136° |
| 2026-05-05 20:44 | 16.71182 | -93.17161 | 36913 ft | 444 kts | 136° |
| 2026-05-05 20:44 | 16.66002 | -93.11972 | 36928 ft | 444 kts | 137° |
| 2026-05-05 20:45 | 16.60059 | -93.06019 | 36942 ft | 445 kts | 137° |
| 2026-05-05 20:45 | 16.55760 | -93.01377 | 36939 ft | 446 kts | 130° |
| 2026-05-05 20:46 | 16.51830 | -92.96366 | 36940 ft | 446 kts | 130° |
| 2026-05-05 20:46 | 16.47891 | -92.91361 | 36930 ft | 447 kts | 130° |
| 2026-05-05 20:47 | 16.43935 | -92.86366 | 36918 ft | 447 kts | 130° |
| 2026-05-05 20:47 | 16.39986 | -92.81370 | 36902 ft | 447 kts | 130° |
| 2026-05-05 20:48 | 16.36073 | -92.76405 | 36871 ft | 446 kts | 130° |
| 2026-05-05 20:48 | 16.32131 | -92.71413 | 36878 ft | 446 kts | 130° |
| 2026-05-05 20:49 | 16.28181 | -92.66411 | 36877 ft | 446 kts | 130° |
| 2026-05-05 20:49 | 16.24233 | -92.61422 | 36877 ft | 446 kts | 130° |
| 2026-05-05 20:50 | 16.20278 | -92.56435 | 36898 ft | 446 kts | 130° |
| 2026-05-05 20:50 | 16.16324 | -92.51444 | 36885 ft | 446 kts | 130° |
| 2026-05-05 20:51 | 16.12374 | -92.46453 | 36884 ft | 446 kts | 130° |
| 2026-05-05 20:51 | 16.08428 | -92.41467 | 36898 ft | 446 kts | 130° |
| 2026-05-05 20:52 | 16.04480 | -92.36490 | 36887 ft | 446 kts | 130° |
| 2026-05-05 20:52 | 16.00548 | -92.31549 | 36886 ft | 446 kts | 130° |
| 2026-05-05 20:53 | 15.96592 | -92.26585 | 36877 ft | 446 kts | 130° |
| 2026-05-05 20:53 | 15.92632 | -92.21599 | 36865 ft | 448 kts | 130° |
| 2026-05-05 20:54 | 15.88652 | -92.16607 | 36885 ft | 448 kts | 130° |
| 2026-05-05 20:54 | 15.84671 | -92.11618 | 36902 ft | 448 kts | 130° |
| 2026-05-05 20:55 | 15.80692 | -92.06630 | 36902 ft | 449 kts | 130° |
| 2026-05-05 20:55 | 15.76709 | -92.01624 | 36935 ft | 450 kts | 130° |
| 2026-05-05 20:56 | 15.72724 | -91.96630 | 36960 ft | 449 kts | 130° |
| 2026-05-05 20:56 | 15.68732 | -91.91637 | 36959 ft | 449 kts | 130° |
| 2026-05-05 20:57 | 15.64738 | -91.86648 | 36937 ft | 450 kts | 130° |
| 2026-05-05 20:57 | 15.60726 | -91.81632 | 36971 ft | 453 kts | 130° |
| 2026-05-05 20:58 | 15.56718 | -91.76610 | 36965 ft | 456 kts | 130° |
| 2026-05-05 20:58 | 15.52669 | -91.71539 | 36979 ft | 457 kts | 130° |
| 2026-05-05 20:59 | 15.48605 | -91.66471 | 36998 ft | 458 kts | 130° |
| 2026-05-05 20:59 | 15.44531 | -91.61391 | 36999 ft | 459 kts | 130° |
| 2026-05-05 21:00 | 15.40446 | -91.56302 | 37006 ft | 459 kts | 130° |
| 2026-05-05 21:00 | 15.36355 | -91.51213 | 37006 ft | 460 kts | 130° |
| 2026-05-05 21:01 | 15.32266 | -91.46120 | 37013 ft | 459 kts | 130° |
| 2026-05-05 21:01 | 15.28180 | -91.41036 | 37014 ft | 459 kts | 130° |
| 2026-05-05 21:02 | 15.24085 | -91.35954 | 36990 ft | 458 kts | 130° |
| 2026-05-05 21:02 | 15.20060 | -91.30966 | 36861 ft | 453 kts | 130° |
| 2026-05-05 21:03 | 15.18038 | -91.28456 | 36654 ft | 453 kts | 130° |
| 2026-05-05 21:03 | 15.16018 | -91.25946 | 36029 ft | 454 kts | 130° |
| 2026-05-05 21:03 | 15.14008 | -91.23451 | 35404 ft | 450 kts | 129° |
| 2026-05-05 21:03 | 15.11998 | -91.20956 | 34823 ft | 451 kts | 129° |
| 2026-05-05 21:04 | 15.09988 | -91.18466 | 34220 ft | 451 kts | 129° |
| 2026-05-05 21:04 | 15.07975 | -91.15975 | 33585 ft | 449 kts | 128° |
| 2026-05-05 21:04 | 15.05982 | -91.13509 | 32962 ft | 444 kts | 127° |
| 2026-05-05 21:04 | 15.04011 | -91.11071 | 32322 ft | 438 kts | 128° |
| 2026-05-05 21:05 | 15.02109 | -91.08637 | 31695 ft | 431 kts | 122° |
| 2026-05-05 21:05 | 15.00714 | -91.05943 | 31095 ft | 420 kts | 107° |
| 2026-05-05 21:05 | 14.99853 | -91.03093 | 30499 ft | 412 kts | 104° |
| 2026-05-05 21:05 | 14.99044 | -91.00267 | 29872 ft | 407 kts | 104° |
| 2026-05-05 21:06 | 14.98239 | -90.97484 | 29088 ft | 399 kts | 104° |
| 2026-05-05 21:06 | 14.97449 | -90.94759 | 28322 ft | 392 kts | 104° |
| 2026-05-05 21:06 | 14.96672 | -90.92077 | 27583 ft | 386 kts | 104° |
| 2026-05-05 21:06 | 14.95911 | -90.89435 | 26871 ft | 381 kts | 104° |
| 2026-05-05 21:07 | 14.95170 | -90.86860 | 26171 ft | 376 kts | 105° |
| 2026-05-05 21:07 | 14.94420 | -90.84260 | 25474 ft | 370 kts | 105° |
| 2026-05-05 21:07 | 14.93696 | -90.81755 | 24790 ft | 365 kts | 105° |
| 2026-05-05 21:07 | 14.92972 | -90.79250 | 24113 ft | 361 kts | 105° |
| 2026-05-05 21:08 | 14.92261 | -90.76783 | 23438 ft | 356 kts | 105° |
| 2026-05-05 21:08 | 14.91559 | -90.74350 | 22652 ft | 351 kts | 105° |
| 2026-05-05 21:08 | 14.90863 | -90.71944 | 21866 ft | 347 kts | 105° |
| 2026-05-05 21:08 | 14.90173 | -90.69562 | 21095 ft | 343 kts | 105° |
| 2026-05-05 21:09 | 14.89491 | -90.67209 | 20339 ft | 340 kts | 105° |
| 2026-05-05 21:09 | 14.88817 | -90.64884 | 19613 ft | 336 kts | 105° |
| 2026-05-05 21:09 | 14.88151 | -90.62580 | 18899 ft | 333 kts | 105° |
| 2026-05-05 21:09 | 14.87490 | -90.60295 | 18183 ft | 331 kts | 104° |
| 2026-05-05 21:10 | 14.86830 | -90.58011 | 17624 ft | 331 kts | 105° |
| 2026-05-05 21:10 | 14.86170 | -90.55739 | 17212 ft | 329 kts | 105° |
| 2026-05-05 21:10 | 14.85512 | -90.53479 | 16787 ft | 327 kts | 105° |
| 2026-05-05 21:10 | 14.84860 | -90.51237 | 16384 ft | 325 kts | 105° |
| 2026-05-05 21:11 | 14.84223 | -90.49038 | 15996 ft | 323 kts | 105° |
| 2026-05-05 21:11 | 14.83572 | -90.46793 | 15608 ft | 321 kts | 104° |
| 2026-05-05 21:11 | 14.82934 | -90.44594 | 15199 ft | 319 kts | 105° |
| 2026-05-05 21:11 | 14.82482 | -90.42394 | 14790 ft | 316 kts | 91° |
| 2026-05-05 21:12 | 14.82772 | -90.40175 | 14424 ft | 312 kts | 70° |
| 2026-05-05 21:12 | 14.83819 | -90.38235 | 14060 ft | 310 kts | 50° |
| 2026-05-05 21:12 | 14.85486 | -90.36823 | 13661 ft | 312 kts | 30° |
| 2026-05-05 21:12 | 14.87552 | -90.36136 | 13252 ft | 316 kts | 8° |
| 2026-05-05 21:13 | 14.89748 | -90.36279 | 12852 ft | 320 kts | 347° |
| 2026-05-05 21:13 | 14.91754 | -90.37265 | 12447 ft | 323 kts | 324° |
| 2026-05-05 21:13 | 14.93263 | -90.38992 | 12037 ft | 326 kts | 301° |
| 2026-05-05 21:13 | 14.94137 | -90.41143 | 11694 ft | 324 kts | 289° |
| 2026-05-05 21:14 | 14.94832 | -90.43353 | 11341 ft | 323 kts | 287° |
| 2026-05-05 21:14 | 14.95194 | -90.45618 | 11006 ft | 320 kts | 265° |
| 2026-05-05 21:14 | 14.94528 | -90.47748 | 10656 ft | 305 kts | 235° |
| 2026-05-05 21:14 | 14.93195 | -90.49323 | 10537 ft | 281 kts | 218° |
| 2026-05-05 21:15 | 14.91622 | -90.50377 | 10469 ft | 260 kts | 202° |
| 2026-05-05 21:15 | 14.89969 | -90.50907 | 10346 ft | 239 kts | 184° |
| 2026-05-05 21:15 | 14.88390 | -90.50945 | 10154 ft | 224 kts | 168° |
| 2026-05-05 21:15 | 14.86920 | -90.50547 | 9970 ft | 215 kts | 152° |
| 2026-05-05 21:16 | 14.85639 | -90.49790 | 9965 ft | 210 kts | 139° |
| 2026-05-05 21:16 | 14.84597 | -90.48747 | 9973 ft | 207 kts | 124° |
| 2026-05-05 21:16 | 14.83849 | -90.47491 | 9974 ft | 203 kts | 111° |
| 2026-05-05 21:16 | 14.83350 | -90.46138 | 9969 ft | 202 kts | 105° |
| 2026-05-05 21:17 | 14.82931 | -90.44748 | 9951 ft | 202 kts | 104° |
| 2026-05-05 21:17 | 14.82486 | -90.43373 | 9944 ft | 205 kts | 115° |
| 2026-05-05 21:17 | 14.81408 | -90.42416 | 9949 ft | 214 kts | 160° |
| 2026-05-05 21:17 | 14.79923 | -90.42499 | 9957 ft | 222 kts | 204° |
| 2026-05-05 21:18 | 14.78624 | -90.43388 | 9959 ft | 226 kts | 214° |
| 2026-05-05 21:18 | 14.77361 | -90.44337 | 9677 ft | 224 kts | 213° |
| 2026-05-05 21:18 | 14.76132 | -90.45260 | 9510 ft | 216 kts | 213° |
| 2026-05-05 21:18 | 14.74956 | -90.46149 | 9284 ft | 201 kts | 213° |
| 2026-05-05 21:19 | 14.73847 | -90.46991 | 8937 ft | 195 kts | 213° |
| 2026-05-05 21:19 | 14.72742 | -90.47773 | 8612 ft | 190 kts | 204° |
| 2026-05-05 21:19 | 14.71590 | -90.48293 | 8351 ft | 178 kts | 198° |
| 2026-05-05 21:19 | 14.70436 | -90.48737 | 7905 ft | 176 kts | 198° |
| 2026-05-05 21:20 | 14.69294 | -90.49164 | 7487 ft | 173 kts | 198° |
| 2026-05-05 21:20 | 14.68180 | -90.49582 | 7052 ft | 169 kts | 199° |
| 2026-05-05 21:20 | 14.67084 | -90.49997 | 6691 ft | 164 kts | 199° |
| 2026-05-05 21:20 | 14.66035 | -90.50328 | 6440 ft | 156 kts | 193° |
| 2026-05-05 21:21 | 14.65002 | -90.50621 | 6161 ft | 155 kts | 200° |
| 2026-05-05 21:21 | 14.63982 | -90.50958 | 5978 ft | 155 kts | 193° |
| 2026-05-05 21:21 | 14.62948 | -90.51265 | 5809 ft | 153 kts | 196° |
| 2026-05-05 21:21 | 14.61938 | -90.51597 | 5588 ft | 152 kts | 197° |
| 2026-05-05 21:22 | 14.60927 | -90.51917 | 5329 ft | 150 kts | 197° |
| 2026-05-05 21:22 | 14.59944 | -90.52228 | 5050 ft | 143 kts | 196° |
| 2026-05-05 21:22 | 14.58996 | -90.52528 | 4916 ft | 138 kts | 198° |
| 2026-05-05 21:22 | 14.58250 | -90.52771 | 4886 ft | 75 kts | 197° |
| 2026-05-05 21:23 | 14.58029 | -90.52842 | 4880 ft | 8 kts | 207° |
| 2026-05-05 21:23 | 14.58026 | -90.52899 | 4876 ft | 9 kts | 311° |
| 2026-05-05 21:23 | 14.58084 | -90.52892 | 4881 ft | 9 kts | 20° |
| 2026-05-05 21:23 | 14.58144 | -90.52872 | 4879 ft | 9 kts | 17° |
| 2026-05-05 21:24 | 14.58195 | -90.52856 | 4884 ft | 10 kts | 17° |
| 2026-05-05 21:24 | 14.58262 | -90.52836 | 4882 ft | 10 kts | 16° |
| 2026-05-05 21:24 | 14.58328 | -90.52817 | 4886 ft | 10 kts | 15° |
| 2026-05-05 21:25 | 14.58393 | -90.52798 | 4885 ft | 10 kts | 17° |
| 2026-05-05 21:25 | 14.58465 | -90.52775 | 4890 ft | 12 kts | 17° |
| 2026-05-05 21:25 | 14.58544 | -90.52743 | 4889 ft | 12 kts | 17° |
| 2026-05-05 21:25 | 14.58624 | -90.52717 | 4890 ft | 12 kts | 17° |
| 2026-05-05 21:26 | 14.58702 | -90.52698 | 4891 ft | 11 kts | 15° |
| 2026-05-05 21:26 | 14.58773 | -90.52693 | 4895 ft | 10 kts | 321° |
| 2026-05-05 21:26 | 14.58814 | -90.52754 | 4899 ft | 11 kts | 321° |
| 2026-05-05 21:26 | 14.58883 | -90.52783 | 4901 ft | 11 kts | 357° |
| 2026-05-05 21:27 | 14.58954 | -90.52765 | 4900 ft | 10 kts | 17° |
| 2026-05-05 21:27 | 14.59022 | -90.52743 | 4905 ft | 10 kts | 17° |
| 2026-05-05 21:27 | 14.59060 | -90.52747 | 4901 ft | 4 kts | 288° |
| 2026-05-05 21:27 | 14.59070 | -90.52781 | 4906 ft | 5 kts | 288° |
| 2026-05-05 21:28 | 14.59080 | -90.52807 | 4902 ft | 3 kts | 292° |
| 2026-05-05 21:28 | 14.59085 | -90.52821 | 4901 ft | 0 kts | 284° |
| 2026-05-05 21:28 | 14.59085 | -90.52824 | 4902 ft | 0 kts | 285° |